sensor_id;sensor_type;location;lat;lon;timestamp;pressure;altitude;pressure_sealevel;temperature;humidity
68197;BME280;55019;49.382;11.358;2022-08-19T00:02:24;96072.50;;;19.74;87.09
68197;BME280;55019;49.382;11.358;2022-08-19T00:04:49;96069.22;;;19.67;87.08
68197;BME280;55019;49.382;11.358;2022-08-19T00:07:18;96059.31;;;19.46;87.93
68197;BME280;55019;49.382;11.358;2022-08-19T00:09:44;96070.94;;;19.61;87.63
68197;BME280;55019;49.382;11.358;2022-08-19T00:12:10;96066.13;;;19.70;87.24
68197;BME280;55019;49.382;11.358;2022-08-19T00:14:36;96065.31;;;19.81;86.60
68197;BME280;55019;49.382;11.358;2022-08-19T00:17:04;96070.19;;;19.89;86.65
68197;BME280;55019;49.382;11.358;2022-08-19T00:19:32;96065.00;;;19.66;87.47
68197;BME280;55019;49.382;11.358;2022-08-19T00:21:58;96073.63;;;19.78;86.72
68197;BME280;55019;49.382;11.358;2022-08-19T00:24:25;96066.81;;;19.77;86.87
68197;BME280;55019;49.382;11.358;2022-08-19T00:26:52;96076.84;;;19.68;87.16
68197;BME280;55019;49.382;11.358;2022-08-19T00:29:20;96089.69;;;19.81;86.79
68197;BME280;55019;49.382;11.358;2022-08-19T00:31:46;96077.75;;;19.74;86.03
68197;BME280;55019;49.382;11.358;2022-08-19T00:34:13;96074.00;;;19.70;86.71
68197;BME280;55019;49.382;11.358;2022-08-19T00:36:40;96077.75;;;19.74;86.65
68197;BME280;55019;49.382;11.358;2022-08-19T00:39:05;96072.97;;;19.71;87.37
68197;BME280;55019;49.382;11.358;2022-08-19T00:41:31;96074.09;;;19.75;87.12
68197;BME280;55019;49.382;11.358;2022-08-19T00:46:23;96079.00;;;19.71;86.92
68197;BME280;55019;49.382;11.358;2022-08-19T00:48:49;96088.00;;;19.64;86.67
68197;BME280;55019;49.382;11.358;2022-08-19T00:51:14;96087.22;;;19.63;87.13
68197;BME280;55019;49.382;11.358;2022-08-19T00:53:43;96091.84;;;19.84;86.68
68197;BME280;55019;49.382;11.358;2022-08-19T00:56:08;96085.38;;;19.75;86.95
68197;BME280;55019;49.382;11.358;2022-08-19T00:58:39;96097.59;;;19.70;86.92
68197;BME280;55019;49.382;11.358;2022-08-19T01:01:06;96088.13;;;19.69;87.25
68197;BME280;55019;49.382;11.358;2022-08-19T01:03:32;96079.66;;;19.78;86.86
68197;BME280;55019;49.382;11.358;2022-08-19T01:05:58;96079.00;;;19.71;86.70
68197;BME280;55019;49.382;11.358;2022-08-19T01:08:25;96078.53;;;19.63;87.49
68197;BME280;55019;49.382;11.358;2022-08-19T01:10:54;96088.81;;;19.53;87.68
68197;BME280;55019;49.382;11.358;2022-08-19T01:13:23;96089.63;;;19.65;87.49
68197;BME280;55019;49.382;11.358;2022-08-19T01:15:56;96088.69;;;19.71;86.93
68197;BME280;55019;49.382;11.358;2022-08-19T01:18:23;96066.84;;;19.54;87.57
68197;BME280;55019;49.382;11.358;2022-08-19T01:20:50;96085.84;;;19.72;87.07
68197;BME280;55019;49.382;11.358;2022-08-19T01:23:16;96087.88;;;19.70;88.09
68197;BME280;55019;49.382;11.358;2022-08-19T01:25:49;96093.13;;;19.59;87.63
68197;BME280;55019;49.382;11.358;2022-08-19T01:28:26;96085.84;;;19.61;87.91
68197;BME280;55019;49.382;11.358;2022-08-19T01:30:53;96072.16;;;19.82;85.73
68197;BME280;55019;49.382;11.358;2022-08-19T01:33:19;96075.03;;;19.69;86.76
68197;BME280;55019;49.382;11.358;2022-08-19T01:35:46;96078.41;;;19.81;86.19
68197;BME280;55019;49.382;11.358;2022-08-19T01:38:26;96069.78;;;19.69;85.74
68197;BME280;55019;49.382;11.358;2022-08-19T01:40:57;96099.88;;;19.66;87.11
68197;BME280;55019;49.382;11.358;2022-08-19T01:43:23;96087.78;;;19.54;87.23
68197;BME280;55019;49.382;11.358;2022-08-19T01:45:49;96081.31;;;19.56;86.94
68197;BME280;55019;49.382;11.358;2022-08-19T01:48:16;96100.09;;;19.65;86.92
68197;BME280;55019;49.382;11.358;2022-08-19T01:50:41;96107.25;;;19.69;86.19
68197;BME280;55019;49.382;11.358;2022-08-19T01:53:10;96107.72;;;19.55;86.99
68197;BME280;55019;49.382;11.358;2022-08-19T01:55:39;96110.13;;;19.56;87.67
68197;BME280;55019;49.382;11.358;2022-08-19T01:58:06;96115.38;;;19.45;88.70
68197;BME280;55019;49.382;11.358;2022-08-19T02:00:33;96115.69;;;19.60;88.28
68197;BME280;55019;49.382;11.358;2022-08-19T02:02:58;96112.28;;;19.59;87.62
68197;BME280;55019;49.382;11.358;2022-08-19T02:05:26;96107.50;;;19.56;87.64
68197;BME280;55019;49.382;11.358;2022-08-19T02:07:52;96111.16;;;19.55;88.31
68197;BME280;55019;49.382;11.358;2022-08-19T02:10:20;96115.72;;;19.48;88.14
68197;BME280;55019;49.382;11.358;2022-08-19T02:12:46;96122.34;;;19.39;88.48
68197;BME280;55019;49.382;11.358;2022-08-19T02:15:12;96143.16;;;19.46;88.44
68197;BME280;55019;49.382;11.358;2022-08-19T02:17:38;96145.56;;;19.36;88.58
68197;BME280;55019;49.382;11.358;2022-08-19T02:20:04;96150.34;;;19.39;88.96
68197;BME280;55019;49.382;11.358;2022-08-19T02:22:31;96148.31;;;19.41;89.17
68197;BME280;55019;49.382;11.358;2022-08-19T02:24:56;96144.09;;;19.51;88.73
68197;BME280;55019;49.382;11.358;2022-08-19T02:27:22;96153.66;;;19.46;88.22
68197;BME280;55019;49.382;11.358;2022-08-19T02:29:49;96146.81;;;19.45;87.95
68197;BME280;55019;49.382;11.358;2022-08-19T02:32:16;96153.91;;;19.44;88.84
68197;BME280;55019;49.382;11.358;2022-08-19T02:34:42;96156.75;;;19.66;87.66
68197;BME280;55019;49.382;11.358;2022-08-19T02:37:07;96153.66;;;19.69;87.35
68197;BME280;55019;49.382;11.358;2022-08-19T02:39:56;96167.22;;;19.54;88.19
68197;BME280;55019;49.382;11.358;2022-08-19T02:42:21;96164.13;;;19.46;87.85
68197;BME280;55019;49.382;11.358;2022-08-19T02:44:47;96167.00;;;19.44;88.01
68197;BME280;55019;49.382;11.358;2022-08-19T02:47:12;96170.06;;;19.53;87.99
68197;BME280;55019;49.382;11.358;2022-08-19T02:49:40;96166.28;;;19.37;88.83
68197;BME280;55019;49.382;11.358;2022-08-19T02:52:06;96160.72;;;19.45;88.04
68197;BME280;55019;49.382;11.358;2022-08-19T02:54:31;96158.78;;;19.52;87.79
68197;BME280;55019;49.382;11.358;2022-08-19T02:56:57;96139.06;;;19.50;87.69
68197;BME280;55019;49.382;11.358;2022-08-19T02:59:23;96141.00;;;19.31;88.38
68197;BME280;55019;49.382;11.358;2022-08-19T03:01:50;96131.34;;;19.32;88.14
68197;BME280;55019;49.382;11.358;2022-08-19T03:04:16;96142.94;;;19.36;87.81
68197;BME280;55019;49.382;11.358;2022-08-19T03:06:44;96134.63;;;19.39;88.07
68197;BME280;55019;49.382;11.358;2022-08-19T03:09:11;96126.09;;;19.32;88.01
68197;BME280;55019;49.382;11.358;2022-08-19T03:11:37;96130.41;;;19.38;88.04
68197;BME280;55019;49.382;11.358;2022-08-19T03:14:04;96121.63;;;19.44;88.22
68197;BME280;55019;49.382;11.358;2022-08-19T03:16:34;96110.13;;;19.45;88.64
68197;BME280;55019;49.382;11.358;2022-08-19T03:19:01;96108.66;;;19.37;88.93
68197;BME280;55019;49.382;11.358;2022-08-19T03:21:31;96105.25;;;19.37;88.14
68197;BME280;55019;49.382;11.358;2022-08-19T03:23:58;96100.34;;;19.29;88.69
68197;BME280;55019;49.382;11.358;2022-08-19T03:26:24;96100.69;;;19.21;88.78
68197;BME280;55019;49.382;11.358;2022-08-19T03:28:49;96105.69;;;19.22;88.88
68197;BME280;55019;49.382;11.358;2022-08-19T03:31:17;96107.63;;;19.15;89.18
68197;BME280;55019;49.382;11.358;2022-08-19T03:33:43;96114.81;;;19.20;88.17
68197;BME280;55019;49.382;11.358;2022-08-19T03:36:20;96103.47;;;19.08;89.56
68197;BME280;55019;49.382;11.358;2022-08-19T03:38:57;96092.28;;;19.19;88.52
68197;BME280;55019;49.382;11.358;2022-08-19T03:41:26;96086.34;;;19.23;88.43
68197;BME280;55019;49.382;11.358;2022-08-19T03:43:53;96093.75;;;19.15;88.36
68197;BME280;55019;49.382;11.358;2022-08-19T03:46:21;96092.13;;;19.14;89.22
68197;BME280;55019;49.382;11.358;2022-08-19T03:48:50;96088.84;;;19.18;88.38
68197;BME280;55019;49.382;11.358;2022-08-19T03:51:39;96099.16;;;19.13;89.13
68197;BME280;55019;49.382;11.358;2022-08-19T03:54:08;96100.91;;;19.19;88.74
68197;BME280;55019;49.382;11.358;2022-08-19T03:56:39;96096.13;;;19.16;89.22
68197;BME280;55019;49.382;11.358;2022-08-19T03:59:08;96089.50;;;19.14;88.14
68197;BME280;55019;49.382;11.358;2022-08-19T04:01:34;96087.78;;;19.08;89.29
68197;BME280;55019;49.382;11.358;2022-08-19T04:04:00;96084.59;;;19.06;89.48
68197;BME280;55019;49.382;11.358;2022-08-19T04:06:28;96097.09;;;19.04;89.58
68197;BME280;55019;49.382;11.358;2022-08-19T04:08:56;96110.53;;;18.96;89.51
68197;BME280;55019;49.382;11.358;2022-08-19T04:11:28;96122.38;;;19.10;88.85
68197;BME280;55019;49.382;11.358;2022-08-19T04:13:55;96126.03;;;19.09;88.72
68197;BME280;55019;49.382;11.358;2022-08-19T04:16:25;96129.78;;;19.01;89.64
68197;BME280;55019;49.382;11.358;2022-08-19T04:18:55;96136.63;;;19.02;89.24
68197;BME280;55019;49.382;11.358;2022-08-19T04:21:23;96143.66;;;19.02;89.27
68197;BME280;55019;49.382;11.358;2022-08-19T04:23:48;96136.63;;;19.02;89.56
68197;BME280;55019;49.382;11.358;2022-08-19T04:26:21;96143.28;;;19.16;88.32
68197;BME280;55019;49.382;11.358;2022-08-19T04:28:47;96138.09;;;19.10;88.76
68197;BME280;55019;49.382;11.358;2022-08-19T04:31:21;96147.72;;;19.16;88.25
68197;BME280;55019;49.382;11.358;2022-08-19T04:33:47;96163.44;;;19.16;87.92
68197;BME280;55019;49.382;11.358;2022-08-19T04:36:21;96166.19;;;18.92;88.89
68197;BME280;55019;49.382;11.358;2022-08-19T04:38:48;96163.91;;;18.95;89.66
68197;BME280;55019;49.382;11.358;2022-08-19T04:41:14;96172.66;;;18.89;89.84
68197;BME280;55019;49.382;11.358;2022-08-19T04:43:58;96182.47;;;18.93;89.36
68197;BME280;55019;49.382;11.358;2022-08-19T04:46:24;96187.38;;;19.01;89.29
68197;BME280;55019;49.382;11.358;2022-08-19T04:48:50;96179.53;;;19.13;88.40
68197;BME280;55019;49.382;11.358;2022-08-19T04:51:15;96183.56;;;19.15;88.05
68197;BME280;55019;49.382;11.358;2022-08-19T04:53:42;96200.78;;;19.23;87.96
68197;BME280;55019;49.382;11.358;2022-08-19T04:56:11;96194.09;;;19.09;88.44
68197;BME280;55019;49.382;11.358;2022-08-19T04:58:40;96198.91;;;19.12;88.70
68197;BME280;55019;49.382;11.358;2022-08-19T05:01:08;96199.78;;;19.24;88.27
68197;BME280;55019;49.382;11.358;2022-08-19T05:03:35;96200.22;;;19.21;88.12
68197;BME280;55019;49.382;11.358;2022-08-19T05:06:06;96211.03;;;19.24;87.54
68197;BME280;55019;49.382;11.358;2022-08-19T05:08:32;96212.06;;;19.23;87.97
68197;BME280;55019;49.382;11.358;2022-08-19T05:10:59;96219.78;;;19.18;88.83
68197;BME280;55019;49.382;11.358;2022-08-19T05:13:25;96216.38;;;19.29;88.69
68197;BME280;55019;49.382;11.358;2022-08-19T05:15:58;96210.59;;;19.39;87.98
68197;BME280;55019;49.382;11.358;2022-08-19T05:18:24;96208.09;;;19.44;87.41
68197;BME280;55019;49.382;11.358;2022-08-19T05:21:13;96206.88;;;19.46;87.43
68197;BME280;55019;49.382;11.358;2022-08-19T05:23:57;96207.31;;;19.43;87.69
68197;BME280;55019;49.382;11.358;2022-08-19T05:26:24;96213.69;;;19.59;86.74
68197;BME280;55019;49.382;11.358;2022-08-19T05:28:52;96202.78;;;19.50;87.21
68197;BME280;55019;49.382;11.358;2022-08-19T05:31:18;96201.63;;;19.46;87.10
68197;BME280;55019;49.382;11.358;2022-08-19T05:33:43;96195.00;;;19.44;86.60
68197;BME280;55019;49.382;11.358;2022-08-19T05:36:09;96201.94;;;19.50;85.97
68197;BME280;55019;49.382;11.358;2022-08-19T05:38:35;96206.75;;;19.53;85.68
68197;BME280;55019;49.382;11.358;2022-08-19T05:41:09;96213.56;;;19.54;86.28
68197;BME280;55019;49.382;11.358;2022-08-19T05:43:34;96215.16;;;19.55;85.96
68197;BME280;55019;49.382;11.358;2022-08-19T05:46:04;96209.00;;;19.61;86.06
68197;BME280;55019;49.382;11.358;2022-08-19T05:48:30;96210.97;;;19.65;85.63
68197;BME280;55019;49.382;11.358;2022-08-19T05:50:56;96206.41;;;19.72;84.94
68197;BME280;55019;49.382;11.358;2022-08-19T05:53:23;96208.78;;;19.85;83.72
68197;BME280;55019;49.382;11.358;2022-08-19T05:55:49;96210.63;;;19.85;84.11
68197;BME280;55019;49.382;11.358;2022-08-19T05:58:14;96204.69;;;19.89;84.36
68197;BME280;55019;49.382;11.358;2022-08-19T06:00:43;96210.84;;;19.83;85.78
68197;BME280;55019;49.382;11.358;2022-08-19T06:03:09;96204.94;;;19.99;84.55
68197;BME280;55019;49.382;11.358;2022-08-19T06:05:34;96202.19;;;20.06;84.23
68197;BME280;55019;49.382;11.358;2022-08-19T06:08:02;96195.00;;;20.13;83.81
68197;BME280;55019;49.382;11.358;2022-08-19T06:10:28;96194.44;;;20.11;85.13
68197;BME280;55019;49.382;11.358;2022-08-19T06:12:54;96202.88;;;20.13;83.99
68197;BME280;55019;49.382;11.358;2022-08-19T06:15:21;96196.72;;;20.19;83.15
68197;BME280;55019;49.382;11.358;2022-08-19T06:17:50;96192.22;;;20.42;81.48
68197;BME280;55019;49.382;11.358;2022-08-19T06:20:15;96207.53;;;20.61;81.17
68197;BME280;55019;49.382;11.358;2022-08-19T06:22:46;96213.97;;;20.54;80.00
68197;BME280;55019;49.382;11.358;2022-08-19T06:25:13;96204.34;;;20.59;81.86
68197;BME280;55019;49.382;11.358;2022-08-19T06:27:40;96197.25;;;20.71;80.40
68197;BME280;55019;49.382;11.358;2022-08-19T06:30:06;96208.06;;;20.86;80.97
68197;BME280;55019;49.382;11.358;2022-08-19T06:32:32;96201.97;;;20.86;80.03
68197;BME280;55019;49.382;11.358;2022-08-19T06:34:57;96204.56;;;20.69;81.32
68197;BME280;55019;49.382;11.358;2022-08-19T06:37:23;96208.66;;;20.65;80.02
68197;BME280;55019;49.382;11.358;2022-08-19T06:39:49;96205.06;;;20.55;79.52
68197;BME280;55019;49.382;11.358;2022-08-19T06:42:15;96206.41;;;20.57;80.31
68197;BME280;55019;49.382;11.358;2022-08-19T06:44:45;96202.56;;;20.48;81.73
68197;BME280;55019;49.382;11.358;2022-08-19T06:47:14;96215.06;;;20.69;80.50
68197;BME280;55019;49.382;11.358;2022-08-19T06:49:40;96211.00;;;20.50;81.06
68197;BME280;55019;49.382;11.358;2022-08-19T06:52:05;96227.09;;;20.54;82.46
68197;BME280;55019;49.382;11.358;2022-08-19T06:54:31;96227.69;;;20.33;81.50
68197;BME280;55019;49.382;11.358;2022-08-19T06:57:00;96227.94;;;20.20;80.79
68197;BME280;55019;49.382;11.358;2022-08-19T06:59:30;96235.91;;;20.37;81.90
68197;BME280;55019;49.382;11.358;2022-08-19T07:01:59;96237.91;;;20.57;80.14
68197;BME280;55019;49.382;11.358;2022-08-19T07:04:28;96236.56;;;20.43;79.67
68197;BME280;55019;49.382;11.358;2022-08-19T07:07:06;96244.66;;;20.53;80.71
68197;BME280;55019;49.382;11.358;2022-08-19T07:09:34;96252.66;;;20.47;81.84
68197;BME280;55019;49.382;11.358;2022-08-19T07:12:04;96250.72;;;20.42;80.55
68197;BME280;55019;49.382;11.358;2022-08-19T07:14:29;96250.75;;;20.31;83.06
68197;BME280;55019;49.382;11.358;2022-08-19T07:16:56;96249.13;;;20.42;81.91
68197;BME280;55019;49.382;11.358;2022-08-19T07:19:25;96248.94;;;20.32;81.84
68197;BME280;55019;49.382;11.358;2022-08-19T07:21:53;96256.34;;;20.35;81.22
68197;BME280;55019;49.382;11.358;2022-08-19T07:24:21;96262.94;;;20.37;82.00
68197;BME280;55019;49.382;11.358;2022-08-19T07:26:49;96271.31;;;20.23;83.58
68197;BME280;55019;49.382;11.358;2022-08-19T07:29:16;96263.91;;;20.20;81.44
68197;BME280;55019;49.382;11.358;2022-08-19T07:31:41;96265.03;;;20.24;82.12
68197;BME280;55019;49.382;11.358;2022-08-19T07:34:09;96261.94;;;20.15;82.92
68197;BME280;55019;49.382;11.358;2022-08-19T07:36:38;96261.28;;;20.20;81.85
68197;BME280;55019;49.382;11.358;2022-08-19T07:39:10;96258.19;;;20.23;82.64
68197;BME280;55019;49.382;11.358;2022-08-19T07:41:36;96254.97;;;20.32;81.89
68197;BME280;55019;49.382;11.358;2022-08-19T07:44:02;96256.44;;;20.28;81.44
68197;BME280;55019;49.382;11.358;2022-08-19T07:46:33;96249.81;;;20.37;81.19
68197;BME280;55019;49.382;11.358;2022-08-19T07:48:59;96247.53;;;20.41;80.38
68197;BME280;55019;49.382;11.358;2022-08-19T07:51:26;96240.59;;;20.46;81.23
68197;BME280;55019;49.382;11.358;2022-08-19T07:53:52;96243.88;;;20.42;80.85
68197;BME280;55019;49.382;11.358;2022-08-19T07:56:19;96232.34;;;20.42;80.79
68197;BME280;55019;49.382;11.358;2022-08-19T07:58:46;96234.06;;;20.48;80.36
68197;BME280;55019;49.382;11.358;2022-08-19T08:01:16;96218.50;;;20.58;78.98
68197;BME280;55019;49.382;11.358;2022-08-19T08:03:42;96214.34;;;20.46;79.56
68197;BME280;55019;49.382;11.358;2022-08-19T08:06:27;96218.47;;;20.42;79.63
68197;BME280;55019;49.382;11.358;2022-08-19T08:09:11;96224.28;;;20.33;80.04
68197;BME280;55019;49.382;11.358;2022-08-19T08:11:39;96231.97;;;20.23;80.58
68197;BME280;55019;49.382;11.358;2022-08-19T08:14:06;96233.75;;;20.34;80.22
68197;BME280;55019;49.382;11.358;2022-08-19T08:16:36;96236.13;;;20.46;79.26
68197;BME280;55019;49.382;11.358;2022-08-19T08:19:04;96242.28;;;20.41;80.28
68197;BME280;55019;49.382;11.358;2022-08-19T08:21:31;96243.41;;;20.44;80.32
68197;BME280;55019;49.382;11.358;2022-08-19T08:23:56;96236.81;;;20.42;80.64
68197;BME280;55019;49.382;11.358;2022-08-19T08:26:22;96231.69;;;20.36;79.45
68197;BME280;55019;49.382;11.358;2022-08-19T08:28:48;96236.38;;;20.34;79.93
68197;BME280;55019;49.382;11.358;2022-08-19T08:31:14;96245.38;;;20.38;79.34
68197;BME280;55019;49.382;11.358;2022-08-19T08:33:40;96249.25;;;20.35;79.97
68197;BME280;55019;49.382;11.358;2022-08-19T08:36:07;96236.94;;;20.36;79.99
68197;BME280;55019;49.382;11.358;2022-08-19T08:38:34;96245.06;;;20.23;80.85
68197;BME280;55019;49.382;11.358;2022-08-19T08:41:27;96244.59;;;20.26;80.49
68197;BME280;55019;49.382;11.358;2022-08-19T08:43:53;96245.94;;;20.40;79.36
68197;BME280;55019;49.382;11.358;2022-08-19T08:46:39;96243.78;;;20.48;78.88
68197;BME280;55019;49.382;11.358;2022-08-19T08:51:48;96237.84;;;20.80;78.39
68197;BME280;55019;49.382;11.358;2022-08-19T08:54:20;96242.19;;;20.86;78.08
68197;BME280;55019;49.382;11.358;2022-08-19T08:56:47;96251.84;;;20.97;78.07
68197;BME280;55019;49.382;11.358;2022-08-19T08:59:21;96257.19;;;21.02;77.14
68197;BME280;55019;49.382;11.358;2022-08-19T09:01:48;96249.50;;;20.84;77.16
68197;BME280;55019;49.382;11.358;2022-08-19T09:04:14;96252.94;;;20.73;78.15
68197;BME280;55019;49.382;11.358;2022-08-19T09:09:35;96240.91;;;20.89;77.67
68197;BME280;55019;49.382;11.358;2022-08-19T09:12:26;96237.53;;;21.05;77.84
68197;BME280;55019;49.382;11.358;2022-08-19T09:15:00;96244.63;;;21.04;76.70
68197;BME280;55019;49.382;11.358;2022-08-19T09:17:29;96238.06;;;20.90;77.38
68197;BME280;55019;49.382;11.358;2022-08-19T09:20:18;96240.00;;;20.95;77.33
68197;BME280;55019;49.382;11.358;2022-08-19T09:22:44;96239.53;;;20.98;77.28
68197;BME280;55019;49.382;11.358;2022-08-19T09:25:13;96239.09;;;20.89;77.42
68197;BME280;55019;49.382;11.358;2022-08-19T09:27:40;96240.94;;;20.77;78.55
68197;BME280;55019;49.382;11.358;2022-08-19T09:30:07;96244.03;;;20.74;79.33
68197;BME280;55019;49.382;11.358;2022-08-19T09:32:33;96234.47;;;20.68;78.42
68197;BME280;55019;49.382;11.358;2022-08-19T09:34:59;96238.56;;;20.64;78.44
68197;BME280;55019;49.382;11.358;2022-08-19T09:37:26;96248.31;;;20.52;78.90
68197;BME280;55019;49.382;11.358;2022-08-19T09:39:52;96238.47;;;20.59;78.77
68197;BME280;55019;49.382;11.358;2022-08-19T09:42:17;96239.59;;;20.63;78.62
68197;BME280;55019;49.382;11.358;2022-08-19T09:44:43;96244.69;;;20.42;80.47
68197;BME280;55019;49.382;11.358;2022-08-19T09:47:10;96242.50;;;20.50;80.64
68197;BME280;55019;49.382;11.358;2022-08-19T09:49:37;96247.34;;;20.31;80.32
68197;BME280;55019;49.382;11.358;2022-08-19T09:52:04;96262.63;;;20.34;80.89
68197;BME280;55019;49.382;11.358;2022-08-19T09:54:29;96255.41;;;20.29;81.75
68197;BME280;55019;49.382;11.358;2022-08-19T09:56:55;96255.63;;;20.39;81.24
68197;BME280;55019;49.382;11.358;2022-08-19T09:59:22;96250.25;;;20.45;82.19
68197;BME280;55019;49.382;11.358;2022-08-19T10:01:49;96255.72;;;20.55;80.73
68197;BME280;55019;49.382;11.358;2022-08-19T10:04:15;96251.75;;;20.53;80.87
68197;BME280;55019;49.382;11.358;2022-08-19T10:06:40;96255.72;;;20.55;79.58
68197;BME280;55019;49.382;11.358;2022-08-19T10:09:08;96263.66;;;20.33;81.21
68197;BME280;55019;49.382;11.358;2022-08-19T10:11:35;96261.94;;;20.27;81.48
68197;BME280;55019;49.382;11.358;2022-08-19T10:14:03;96263.66;;;20.21;81.15
68197;BME280;55019;49.382;11.358;2022-08-19T10:16:31;96261.84;;;20.10;82.73
68197;BME280;55019;49.382;11.358;2022-08-19T10:18:57;96269.91;;;20.09;82.84
68197;BME280;55019;49.382;11.358;2022-08-19T10:21:26;96276.19;;;20.19;81.52
68197;BME280;55019;49.382;11.358;2022-08-19T10:23:54;96271.63;;;20.15;81.88
68197;BME280;55019;49.382;11.358;2022-08-19T10:26:24;96271.31;;;20.23;81.24
68197;BME280;55019;49.382;11.358;2022-08-19T10:28:50;96281.44;;;20.31;80.75
68197;BME280;55019;49.382;11.358;2022-08-19T10:31:22;96276.09;;;20.26;81.41
68197;BME280;55019;49.382;11.358;2022-08-19T10:33:49;96276.56;;;20.23;82.09
68197;BME280;55019;49.382;11.358;2022-08-19T10:36:19;96275.63;;;20.06;83.13
68197;BME280;55019;49.382;11.358;2022-08-19T10:38:48;96275.97;;;20.09;82.99
68197;BME280;55019;49.382;11.358;2022-08-19T10:41:22;96278.81;;;20.19;82.09
68197;BME280;55019;49.382;11.358;2022-08-19T10:43:57;96285.44;;;20.22;82.26
68197;BME280;55019;49.382;11.358;2022-08-19T10:46:25;96290.09;;;20.31;82.38
68197;BME280;55019;49.382;11.358;2022-08-19T10:48:51;96284.06;;;20.31;82.15
68197;BME280;55019;49.382;11.358;2022-08-19T10:51:17;96282.88;;;20.49;81.55
68197;BME280;55019;49.382;11.358;2022-08-19T10:54:02;96281.78;;;20.85;80.51
68197;BME280;55019;49.382;11.358;2022-08-19T10:56:28;96286.34;;;20.89;79.52
68197;BME280;55019;49.382;11.358;2022-08-19T10:59:12;96273.34;;;21.22;78.33
68197;BME280;55019;49.382;11.358;2022-08-19T11:01:39;96285.59;;;21.33;78.00
68197;BME280;55019;49.382;11.358;2022-08-19T11:04:06;96277.06;;;21.26;76.68
68197;BME280;55019;49.382;11.358;2022-08-19T11:06:35;96280.22;;;21.12;77.59
68197;BME280;55019;49.382;11.358;2022-08-19T11:09:02;96280.34;;;21.05;78.73
68197;BME280;55019;49.382;11.358;2022-08-19T11:11:28;96273.41;;;20.99;79.70
68197;BME280;55019;49.382;11.358;2022-08-19T11:13:54;96276.13;;;21.04;80.28
68197;BME280;55019;49.382;11.358;2022-08-19T11:16:24;96275.94;;;20.94;80.67
68197;BME280;55019;49.382;11.358;2022-08-19T11:18:54;96278.06;;;21.09;80.93
68197;BME280;55019;49.382;11.358;2022-08-19T11:21:24;96274.66;;;21.25;80.60
68197;BME280;55019;49.382;11.358;2022-08-19T11:23:56;96272.13;;;21.30;79.82
68197;BME280;55019;49.382;11.358;2022-08-19T11:26:23;96269.31;;;21.48;80.46
68197;BME280;55019;49.382;11.358;2022-08-19T11:28:49;96271.97;;;21.64;78.21
68197;BME280;55019;49.382;11.358;2022-08-19T11:31:20;96272.44;;;21.78;78.71
68197;BME280;55019;49.382;11.358;2022-08-19T11:33:49;96273.34;;;21.83;77.63
68197;BME280;55019;49.382;11.358;2022-08-19T11:36:20;96270.69;;;21.83;77.97
68197;BME280;55019;49.382;11.358;2022-08-19T11:38:47;96267.91;;;21.73;79.51
68197;BME280;55019;49.382;11.358;2022-08-19T11:41:14;96272.28;;;21.84;79.64
68197;BME280;55019;49.382;11.358;2022-08-19T11:43:40;96269.97;;;22.04;77.77
68197;BME280;55019;49.382;11.358;2022-08-19T11:46:08;96261.97;;;22.15;77.78
68197;BME280;55019;49.382;11.358;2022-08-19T11:48:36;96267.31;;;22.20;75.89
68197;BME280;55019;49.382;11.358;2022-08-19T11:51:08;96265.28;;;22.27;75.56
68197;BME280;55019;49.382;11.358;2022-08-19T11:54:23;96256.94;;;22.14;76.05
68197;BME280;55019;49.382;11.358;2022-08-19T11:56:32;96266.19;;;22.16;76.63
68197;BME280;55019;49.382;11.358;2022-08-19T11:58:57;96261.72;;;22.17;76.00
68197;BME280;55019;49.382;11.358;2022-08-19T12:01:25;96263.84;;;21.98;77.61
68197;BME280;55019;49.382;11.358;2022-08-19T12:03:52;96265.88;;;22.13;76.37
68197;BME280;55019;49.382;11.358;2022-08-19T12:06:25;96259.22;;;21.73;76.99
68197;BME280;55019;49.382;11.358;2022-08-19T12:08:56;96258.59;;;21.82;77.17
68197;BME280;55019;49.382;11.358;2022-08-19T12:11:23;96243.56;;;21.99;75.98
68197;BME280;55019;49.382;11.358;2022-08-19T12:13:49;96247.56;;;22.01;76.00
68197;BME280;55019;49.382;11.358;2022-08-19T12:16:18;96260.31;;;21.93;76.62
68197;BME280;55019;49.382;11.358;2022-08-19T12:18:44;96259.38;;;21.66;77.07
68197;BME280;55019;49.382;11.358;2022-08-19T12:21:15;96255.91;;;21.49;77.68
68197;BME280;55019;49.382;11.358;2022-08-19T12:23:43;96253.19;;;21.44;77.88
68197;BME280;55019;49.382;11.358;2022-08-19T12:28:48;96230.66;;;21.48;77.60
68197;BME280;55019;49.382;11.358;2022-08-19T12:31:13;96227.63;;;21.56;77.67
68197;BME280;55019;49.382;11.358;2022-08-19T12:33:41;96222.09;;;21.69;77.84
68197;BME280;55019;49.382;11.358;2022-08-19T12:36:11;96243.09;;;22.02;77.91
68197;BME280;55019;49.382;11.358;2022-08-19T12:38:40;96227.38;;;21.69;78.26
68197;BME280;55019;49.382;11.358;2022-08-19T12:41:34;96225.25;;;21.55;79.14
68197;BME280;55019;49.382;11.358;2022-08-19T12:44:08;96224.22;;;21.39;79.58
68197;BME280;55019;49.382;11.358;2022-08-19T12:46:46;96222.69;;;21.43;80.05
68197;BME280;55019;49.382;11.358;2022-08-19T12:49:17;96228.19;;;21.58;79.19
68197;BME280;55019;49.382;11.358;2022-08-19T12:51:43;96208.44;;;21.56;79.47
68197;BME280;55019;49.382;11.358;2022-08-19T12:54:09;96224.78;;;21.91;78.91
68197;BME280;55019;49.382;11.358;2022-08-19T12:56:36;96228.63;;;21.67;78.70
68197;BME280;55019;49.382;11.358;2022-08-19T12:59:03;96243.59;;;21.83;78.58
68197;BME280;55019;49.382;11.358;2022-08-19T13:01:29;96258.25;;;21.79;78.67
68197;BME280;55019;49.382;11.358;2022-08-19T13:03:58;96260.19;;;21.67;78.92
68197;BME280;55019;49.382;11.358;2022-08-19T13:06:23;96250.38;;;21.62;78.14
68197;BME280;55019;49.382;11.358;2022-08-19T13:08:49;96260.88;;;21.46;79.62